sensor_id;sensor_type;location;lat;lon;timestamp;temperature;humidity
16038;DHT22;8123;50.906;6.172;2024-03-06T00:01:44;5.70;99.90
16038;DHT22;8123;50.906;6.172;2024-03-06T00:04:10;5.80;99.90
16038;DHT22;8123;50.906;6.172;2024-03-06T00:06:35;5.70;99.90
16038;DHT22;8123;50.906;6.172;2024-03-06T00:09:02;5.90;99.90
16038;DHT22;8123;50.906;6.172;2024-03-06T00:11:28;5.80;99.90
16038;DHT22;8123;50.906;6.172;2024-03-06T00:13:54;5.80;99.90
16038;DHT22;8123;50.906;6.172;2024-03-06T00:16:20;5.70;99.90
16038;DHT22;8123;50.906;6.172;2024-03-06T00:18:46;5.70;99.90
16038;DHT22;8123;50.906;6.172;2024-03-06T00:21:12;5.70;99.90
16038;DHT22;8123;50.906;6.172;2024-03-06T00:23:38;5.90;99.90
16038;DHT22;8123;50.906;6.172;2024-03-06T00:26:03;5.80;99.90
16038;DHT22;8123;50.906;6.172;2024-03-06T00:28:29;6.10;99.90
16038;DHT22;8123;50.906;6.172;2024-03-06T00:30:55;5.90;99.90
16038;DHT22;8123;50.906;6.172;2024-03-06T00:33:21;5.80;99.90
16038;DHT22;8123;50.906;6.172;2024-03-06T00:35:47;5.90;99.90
16038;DHT22;8123;50.906;6.172;2024-03-06T00:38:13;5.80;99.90
16038;DHT22;8123;50.906;6.172;2024-03-06T00:40:40;5.80;99.90
16038;DHT22;8123;50.906;6.172;2024-03-06T00:43:05;6.10;99.90
16038;DHT22;8123;50.906;6.172;2024-03-06T00:45:31;5.80;99.90
16038;DHT22;8123;50.906;6.172;2024-03-06T00:47:57;5.90;99.90
16038;DHT22;8123;50.906;6.172;2024-03-06T00:50:23;6.20;99.90
16038;DHT22;8123;50.906;6.172;2024-03-06T00:52:49;5.90;99.90
16038;DHT22;8123;50.906;6.172;2024-03-06T00:55:15;6.00;99.90
16038;DHT22;8123;50.906;6.172;2024-03-06T00:57:41;6.10;99.90
16038;DHT22;8123;50.906;6.172;2024-03-06T01:00:07;6.20;99.90
16038;DHT22;8123;50.906;6.172;2024-03-06T01:02:39;6.10;93.80
16038;DHT22;8123;50.906;6.172;2024-03-06T01:05:05;6.10;93.00
16038;DHT22;8123;50.906;6.172;2024-03-06T01:07:33;6.20;73.50
16038;DHT22;8123;50.906;6.172;2024-03-06T01:10:00;6.30;45.80
16038;DHT22;8123;50.906;6.172;2024-03-06T01:12:28;6.30;37.90
16038;DHT22;8123;50.906;6.172;2024-03-06T01:14:54;6.10;28.00
16038;DHT22;8123;50.906;6.172;2024-03-06T01:17:20;6.10;25.30
16038;DHT22;8123;50.906;6.172;2024-03-06T01:19:46;6.10;19.80
16038;DHT22;8123;50.906;6.172;2024-03-06T01:22:12;6.10;27.60
16038;DHT22;8123;50.906;6.172;2024-03-06T01:24:40;6.10;33.30
16038;DHT22;8123;50.906;6.172;2024-03-06T01:27:06;6.00;36.00
16038;DHT22;8123;50.906;6.172;2024-03-06T01:29:32;6.20;35.40
16038;DHT22;8123;50.906;6.172;2024-03-06T01:32:01;6.00;26.30
16038;DHT22;8123;50.906;6.172;2024-03-06T01:34:27;5.90;10.90
16038;DHT22;8123;50.906;6.172;2024-03-06T01:36:53;5.90;3.80
16038;DHT22;8123;50.906;6.172;2024-03-06T01:39:19;5.90;1.00
16038;DHT22;8123;50.906;6.172;2024-03-06T01:41:49;6.10;1.00
16038;DHT22;8123;50.906;6.172;2024-03-06T01:44:16;6.00;1.00
16038;DHT22;8123;50.906;6.172;2024-03-06T01:46:43;6.00;1.00
16038;DHT22;8123;50.906;6.172;2024-03-06T01:49:09;5.80;1.00
16038;DHT22;8123;50.906;6.172;2024-03-06T01:51:35;5.80;1.00
16038;DHT22;8123;50.906;6.172;2024-03-06T01:54:01;5.80;1.00
16038;DHT22;8123;50.906;6.172;2024-03-06T01:56:30;5.70;1.00
16038;DHT22;8123;50.906;6.172;2024-03-06T01:58:57;5.90;6.70
16038;DHT22;8123;50.906;6.172;2024-03-06T02:01:23;5.60;15.30
16038;DHT22;8123;50.906;6.172;2024-03-06T02:03:49;5.60;25.90
16038;DHT22;8123;50.906;6.172;2024-03-06T02:06:16;5.60;26.00
16038;DHT22;8123;50.906;6.172;2024-03-06T02:08:45;5.50;33.90
16038;DHT22;8123;50.906;6.172;2024-03-06T02:11:11;5.40;29.50
16038;DHT22;8123;50.906;6.172;2024-03-06T02:13:38;5.30;39.80
16038;DHT22;8123;50.906;6.172;2024-03-06T02:16:04;5.20;52.80
16038;DHT22;8123;50.906;6.172;2024-03-06T02:18:30;5.10;75.00
16038;DHT22;8123;50.906;6.172;2024-03-06T02:20:55;5.10;83.20
16038;DHT22;8123;50.906;6.172;2024-03-06T02:23:21;5.10;91.60
16038;DHT22;8123;50.906;6.172;2024-03-06T02:25:47;5.10;96.20
16038;DHT22;8123;50.906;6.172;2024-03-06T02:28:14;5.30;99.90
16038;DHT22;8123;50.906;6.172;2024-03-06T02:30:39;5.10;99.90
16038;DHT22;8123;50.906;6.172;2024-03-06T02:33:07;5.10;99.90
16038;DHT22;8123;50.906;6.172;2024-03-06T02:35:35;5.10;99.90
16038;DHT22;8123;50.906;6.172;2024-03-06T02:38:01;5.10;99.90
16038;DHT22;8123;50.906;6.172;2024-03-06T02:40:28;5.10;99.90
16038;DHT22;8123;50.906;6.172;2024-03-06T02:42:54;5.00;95.40
16038;DHT22;8123;50.906;6.172;2024-03-06T02:45:19;5.20;96.70
16038;DHT22;8123;50.906;6.172;2024-03-06T02:47:45;4.90;93.60
16038;DHT22;8123;50.906;6.172;2024-03-06T02:50:11;4.90;88.50
16038;DHT22;8123;50.906;6.172;2024-03-06T02:52:37;4.80;83.50
16038;DHT22;8123;50.906;6.172;2024-03-06T02:55:03;4.80;87.70
16038;DHT22;8123;50.906;6.172;2024-03-06T02:57:29;4.70;90.90
16038;DHT22;8123;50.906;6.172;2024-03-06T02:59:58;4.60;92.90
16038;DHT22;8123;50.906;6.172;2024-03-06T03:02:24;4.60;99.90
16038;DHT22;8123;50.906;6.172;2024-03-06T03:04:50;4.70;99.90
16038;DHT22;8123;50.906;6.172;2024-03-06T03:07:17;4.70;99.90
16038;DHT22;8123;50.906;6.172;2024-03-06T03:09:45;4.60;99.90
16038;DHT22;8123;50.906;6.172;2024-03-06T03:12:11;4.60;99.90
16038;DHT22;8123;50.906;6.172;2024-03-06T03:14:37;4.60;99.90
16038;DHT22;8123;50.906;6.172;2024-03-06T03:17:03;4.70;99.90
16038;DHT22;8123;50.906;6.172;2024-03-06T03:19:31;4.60;99.90
16038;DHT22;8123;50.906;6.172;2024-03-06T03:21:56;4.40;99.90
16038;DHT22;8123;50.906;6.172;2024-03-06T03:24:23;4.40;99.90
16038;DHT22;8123;50.906;6.172;2024-03-06T03:26:51;4.30;99.90
16038;DHT22;8123;50.906;6.172;2024-03-06T03:29:17;4.30;99.90
16038;DHT22;8123;50.906;6.172;2024-03-06T03:31:42;4.20;99.90
16038;DHT22;8123;50.906;6.172;2024-03-06T03:34:08;4.20;99.70
16038;DHT22;8123;50.906;6.172;2024-03-06T03:36:34;4.20;99.90
16038;DHT22;8123;50.906;6.172;2024-03-06T03:39:00;4.10;99.90
16038;DHT22;8123;50.906;6.172;2024-03-06T03:41:26;4.10;99.90
16038;DHT22;8123;50.906;6.172;2024-03-06T03:43:51;4.20;99.90
16038;DHT22;8123;50.906;6.172;2024-03-06T03:46:17;4.10;99.90
16038;DHT22;8123;50.906;6.172;2024-03-06T03:48:42;4.10;99.90
16038;DHT22;8123;50.906;6.172;2024-03-06T03:51:09;4.10;99.90
16038;DHT22;8123;50.906;6.172;2024-03-06T03:53:35;4.00;99.90
16038;DHT22;8123;50.906;6.172;2024-03-06T03:56:01;4.10;99.90
16038;DHT22;8123;50.906;6.172;2024-03-06T03:58:27;4.10;99.90
16038;DHT22;8123;50.906;6.172;2024-03-06T04:00:52;4.00;99.90
16038;DHT22;8123;50.906;6.172;2024-03-06T04:03:20;4.00;99.90
16038;DHT22;8123;50.906;6.172;2024-03-06T04:05:47;4.00;99.90
16038;DHT22;8123;50.906;6.172;2024-03-06T04:08:12;4.00;99.90
16038;DHT22;8123;50.906;6.172;2024-03-06T04:10:38;4.00;99.90
16038;DHT22;8123;50.906;6.172;2024-03-06T04:13:04;3.90;99.90
16038;DHT22;8123;50.906;6.172;2024-03-06T04:15:29;3.90;99.90
16038;DHT22;8123;50.906;6.172;2024-03-06T04:17:56;3.90;99.90
16038;DHT22;8123;50.906;6.172;2024-03-06T04:20:22;3.80;99.90
16038;DHT22;8123;50.906;6.172;2024-03-06T04:22:47;3.80;99.90
16038;DHT22;8123;50.906;6.172;2024-03-06T04:25:15;3.80;99.90
16038;DHT22;8123;50.906;6.172;2024-03-06T04:27:41;3.80;99.90
16038;DHT22;8123;50.906;6.172;2024-03-06T04:30:07;3.80;99.90
16038;DHT22;8123;50.906;6.172;2024-03-06T04:32:33;3.90;99.90
16038;DHT22;8123;50.906;6.172;2024-03-06T04:34:58;3.90;99.90
16038;DHT22;8123;50.906;6.172;2024-03-06T04:37:24;4.00;99.90
16038;DHT22;8123;50.906;6.172;2024-03-06T04:39:52;4.00;99.90
16038;DHT22;8123;50.906;6.172;2024-03-06T04:42:17;3.90;99.90
16038;DHT22;8123;50.906;6.172;2024-03-06T04:44:44;3.90;99.90
16038;DHT22;8123;50.906;6.172;2024-03-06T04:47:10;3.90;99.90
16038;DHT22;8123;50.906;6.172;2024-03-06T04:49:35;3.90;99.90
16038;DHT22;8123;50.906;6.172;2024-03-06T04:52:01;3.80;99.90
16038;DHT22;8123;50.906;6.172;2024-03-06T04:54:27;3.90;99.90
16038;DHT22;8123;50.906;6.172;2024-03-06T04:56:52;3.80;99.90
16038;DHT22;8123;50.906;6.172;2024-03-06T04:59:18;3.80;99.90
16038;DHT22;8123;50.906;6.172;2024-03-06T05:01:43;3.90;99.90
16038;DHT22;8123;50.906;6.172;2024-03-06T05:04:09;3.80;99.90
16038;DHT22;8123;50.906;6.172;2024-03-06T05:06:36;3.80;99.90
16038;DHT22;8123;50.906;6.172;2024-03-06T05:09:02;3.90;99.90
16038;DHT22;8123;50.906;6.172;2024-03-06T05:11:28;3.80;99.90
16038;DHT22;8123;50.906;6.172;2024-03-06T05:13:55;3.90;99.90
16038;DHT22;8123;50.906;6.172;2024-03-06T05:16:20;3.90;99.90
16038;DHT22;8123;50.906;6.172;2024-03-06T05:18:48;3.90;99.90
16038;DHT22;8123;50.906;6.172;2024-03-06T05:21:15;3.90;99.90
16038;DHT22;8123;50.906;6.172;2024-03-06T05:23:41;3.90;99.90
16038;DHT22;8123;50.906;6.172;2024-03-06T05:26:06;3.90;99.90
16038;DHT22;8123;50.906;6.172;2024-03-06T05:28:32;3.90;99.90
16038;DHT22;8123;50.906;6.172;2024-03-06T05:30:59;3.90;99.90
16038;DHT22;8123;50.906;6.172;2024-03-06T05:33:26;3.90;98.60
16038;DHT22;8123;50.906;6.172;2024-03-06T05:35:53;3.90;91.70
16038;DHT22;8123;50.906;6.172;2024-03-06T05:38:19;3.90;84.80
16038;DHT22;8123;50.906;6.172;2024-03-06T05:40:47;3.80;78.60
16038;DHT22;8123;50.906;6.172;2024-03-06T05:43:12;3.80;84.10
16038;DHT22;8123;50.906;6.172;2024-03-06T05:45:38;3.80;79.50
16038;DHT22;8123;50.906;6.172;2024-03-06T05:48:04;3.80;81.90
16038;DHT22;8123;50.906;6.172;2024-03-06T05:50:30;3.70;68.00
16038;DHT22;8123;50.906;6.172;2024-03-06T05:52:57;3.70;71.40
16038;DHT22;8123;50.906;6.172;2024-03-06T05:55:23;3.80;90.10
16038;DHT22;8123;50.906;6.172;2024-03-06T05:57:48;3.80;90.70
16038;DHT22;8123;50.906;6.172;2024-03-06T06:00:15;3.80;91.60
16038;DHT22;8123;50.906;6.172;2024-03-06T06:02:43;3.80;93.50
16038;DHT22;8123;50.906;6.172;2024-03-06T06:05:10;3.70;85.00
16038;DHT22;8123;50.906;6.172;2024-03-06T06:07:36;3.70;90.40
16038;DHT22;8123;50.906;6.172;2024-03-06T06:10:04;3.70;96.20
16038;DHT22;8123;50.906;6.172;2024-03-06T06:12:33;3.80;99.90
16038;DHT22;8123;50.906;6.172;2024-03-06T06:14:59;3.90;99.60
16038;DHT22;8123;50.906;6.172;2024-03-06T06:17:25;4.00;93.10
16038;DHT22;8123;50.906;6.172;2024-03-06T06:19:51;3.80;80.20
16038;DHT22;8123;50.906;6.172;2024-03-06T06:22:16;3.90;90.60
16038;DHT22;8123;50.906;6.172;2024-03-06T06:24:42;4.00;90.40
16038;DHT22;8123;50.906;6.172;2024-03-06T06:27:07;4.10;76.40
16038;DHT22;8123;50.906;6.172;2024-03-06T06:29:33;4.10;48.50
16038;DHT22;8123;50.906;6.172;2024-03-06T06:31:59;4.20;33.60
16038;DHT22;8123;50.906;6.172;2024-03-06T06:34:25;4.20;23.60
16038;DHT22;8123;50.906;6.172;2024-03-06T06:36:53;4.20;13.60
16038;DHT22;8123;50.906;6.172;2024-03-06T06:39:19;4.20;11.20
16038;DHT22;8123;50.906;6.172;2024-03-06T06:41:44;4.20;5.20
16038;DHT22;8123;50.906;6.172;2024-03-06T06:44:10;4.30;1.00
16038;DHT22;8123;50.906;6.172;2024-03-06T06:46:36;4.40;3.90
16038;DHT22;8123;50.906;6.172;2024-03-06T06:49:01;4.40;1.70
16038;DHT22;8123;50.906;6.172;2024-03-06T06:51:27;4.40;1.00
16038;DHT22;8123;50.906;6.172;2024-03-06T06:53:52;4.50;1.00
16038;DHT22;8123;50.906;6.172;2024-03-06T06:56:18;4.50;1.00
16038;DHT22;8123;50.906;6.172;2024-03-06T06:58:44;4.70;1.00
16038;DHT22;8123;50.906;6.172;2024-03-06T07:01:09;4.80;1.00
16038;DHT22;8123;50.906;6.172;2024-03-06T07:03:35;4.80;1.00
16038;DHT22;8123;50.906;6.172;2024-03-06T07:06:01;4.80;1.00
16038;DHT22;8123;50.906;6.172;2024-03-06T07:08:28;4.90;1.00
16038;DHT22;8123;50.906;6.172;2024-03-06T07:10:54;5.00;1.00
16038;DHT22;8123;50.906;6.172;2024-03-06T07:13:20;5.00;1.00
16038;DHT22;8123;50.906;6.172;2024-03-06T07:15:46;5.00;1.00
16038;DHT22;8123;50.906;6.172;2024-03-06T07:18:12;5.10;1.00
16038;DHT22;8123;50.906;6.172;2024-03-06T07:20:39;5.20;1.00
16038;DHT22;8123;50.906;6.172;2024-03-06T07:23:05;5.20;1.00
16038;DHT22;8123;50.906;6.172;2024-03-06T07:25:30;5.30;1.00
16038;DHT22;8123;50.906;6.172;2024-03-06T07:27:56;5.30;1.00
16038;DHT22;8123;50.906;6.172;2024-03-06T07:30:22;5.20;1.00
16038;DHT22;8123;50.906;6.172;2024-03-06T07:32:47;5.20;1.00
16038;DHT22;8123;50.906;6.172;2024-03-06T07:35:13;5.30;1.00
16038;DHT22;8123;50.906;6.172;2024-03-06T07:37:39;5.40;1.00
16038;DHT22;8123;50.906;6.172;2024-03-06T07:40:08;5.30;1.00
16038;DHT22;8123;50.906;6.172;2024-03-06T07:42:35;5.50;1.00
16038;DHT22;8123;50.906;6.172;2024-03-06T07:45:00;5.50;1.00
16038;DHT22;8123;50.906;6.172;2024-03-06T07:47:26;5.60;1.00
16038;DHT22;8123;50.906;6.172;2024-03-06T07:49:52;5.60;1.00
16038;DHT22;8123;50.906;6.172;2024-03-06T07:52:17;5.90;1.00
16038;DHT22;8123;50.906;6.172;2024-03-06T07:54:43;5.80;1.00
16038;DHT22;8123;50.906;6.172;2024-03-06T07:57:09;5.90;1.00
16038;DHT22;8123;50.906;6.172;2024-03-06T07:59:35;6.00;1.00
16038;DHT22;8123;50.906;6.172;2024-03-06T08:02:00;6.30;1.00
16038;DHT22;8123;50.906;6.172;2024-03-06T08:04:26;6.30;1.00
16038;DHT22;8123;50.906;6.172;2024-03-06T08:06:52;6.30;1.00
16038;DHT22;8123;50.906;6.172;2024-03-06T08:09:18;6.30;1.00
16038;DHT22;8123;50.906;6.172;2024-03-06T08:11:45;6.40;1.00
16038;DHT22;8123;50.906;6.172;2024-03-06T08:14:11;6.50;1.00
16038;DHT22;8123;50.906;6.172;2024-03-06T08:16:36;6.60;1.00
16038;DHT22;8123;50.906;6.172;2024-03-06T08:19:02;6.80;1.00
16038;DHT22;8123;50.906;6.172;2024-03-06T08:21:28;6.70;99.90
16038;DHT22;8123;50.906;6.172;2024-03-06T08:23:54;6.80;99.90
16038;DHT22;8123;50.906;6.172;2024-03-06T08:26:19;6.80;1.00
16038;DHT22;8123;50.906;6.172;2024-03-06T08:28:45;7.00;1.00
16038;DHT22;8123;50.906;6.172;2024-03-06T08:31:11;6.90;99.90
16038;DHT22;8123;50.906;6.172;2024-03-06T08:33:36;7.00;1.00
16038;DHT22;8123;50.906;6.172;2024-03-06T08:36:03;7.00;99.90
16038;DHT22;8123;50.906;6.172;2024-03-06T08:38:28;7.00;99.90
16038;DHT22;8123;50.906;6.172;2024-03-06T08:40:54;7.10;99.90
16038;DHT22;8123;50.906;6.172;2024-03-06T08:43:20;7.50;83.60
16038;DHT22;8123;50.906;6.172;2024-03-06T08:45:46;7.30;1.00
16038;DHT22;8123;50.906;6.172;2024-03-06T08:48:11;7.40;1.00
16038;DHT22;8123;50.906;6.172;2024-03-06T08:50:38;7.40;1.00
16038;DHT22;8123;50.906;6.172;2024-03-06T08:53:03;7.30;1.00
16038;DHT22;8123;50.906;6.172;2024-03-06T08:55:29;7.30;27.20
16038;DHT22;8123;50.906;6.172;2024-03-06T08:57:55;7.30;99.90
16038;DHT22;8123;50.906;6.172;2024-03-06T09:00:20;7.40;14.10
16038;DHT22;8123;50.906;6.172;2024-03-06T09:02:46;7.40;1.40
16038;DHT22;8123;50.906;6.172;2024-03-06T09:05:12;7.40;1.00
16038;DHT22;8123;50.906;6.172;2024-03-06T09:07:38;7.50;1.00
16038;DHT22;8123;50.906;6.172;2024-03-06T09:10:07;7.50;1.00
16038;DHT22;8123;50.906;6.172;2024-03-06T09:12:33;7.60;1.00
16038;DHT22;8123;50.906;6.172;2024-03-06T09:14:59;7.70;1.00
16038;DHT22;8123;50.906;6.172;2024-03-06T09:17:26;7.60;1.00
16038;DHT22;8123;50.906;6.172;2024-03-06T09:19:51;7.70;1.00
16038;DHT22;8123;50.906;6.172;2024-03-06T09:22:17;7.80;99.90
16038;DHT22;8123;50.906;6.172;2024-03-06T09:24:43;8.00;99.90
16038;DHT22;8123;50.906;6.172;2024-03-06T09:27:08;8.00;1.00
16038;DHT22;8123;50.906;6.172;2024-03-06T09:29:34;7.80;99.90
16038;DHT22;8123;50.906;6.172;2024-03-06T09:32:00;8.00;1.00
16038;DHT22;8123;50.906;6.172;2024-03-06T09:34:26;7.80;1.00
16038;DHT22;8123;50.906;6.172;2024-03-06T09:36:51;8.00;1.00
16038;DHT22;8123;50.906;6.172;2024-03-06T09:39:18;8.00;1.00
16038;DHT22;8123;50.906;6.172;2024-03-06T09:41:49;8.10;1.00
16038;DHT22;8123;50.906;6.172;2024-03-06T09:44:16;8.10;54.00
16038;DHT22;8123;50.906;6.172;2024-03-06T09:46:45;8.20;1.00
16038;DHT22;8123;50.906;6.172;2024-03-06T09:49:12;8.30;99.90
16038;DHT22;8123;50.906;6.172;2024-03-06T09:51:44;8.50;1.00
16038;DHT22;8123;50.906;6.172;2024-03-06T09:54:16;8.60;99.90
16038;DHT22;8123;50.906;6.172;2024-03-06T09:56:42;8.70;1.00
16038;DHT22;8123;50.906;6.172;2024-03-06T09:59:09;8.90;1.00
16038;DHT22;8123;50.906;6.172;2024-03-06T10:01:39;9.00;1.00
16038;DHT22;8123;50.906;6.172;2024-03-06T10:04:20;9.00;99.90
16038;DHT22;8123;50.906;6.172;2024-03-06T10:06:46;9.10;1.00
16038;DHT22;8123;50.906;6.172;2024-03-06T10:09:12;9.20;99.90
16038;DHT22;8123;50.906;6.172;2024-03-06T10:11:40;9.30;55.50
16038;DHT22;8123;50.906;6.172;2024-03-06T10:14:08;9.30;41.80
16038;DHT22;8123;50.906;6.172;2024-03-06T10:16:33;9.30;99.90
16038;DHT22;8123;50.906;6.172;2024-03-06T10:19:20;9.40;44.60
16038;DHT22;8123;50.906;6.172;2024-03-06T10:21:49;9.40;1.00
16038;DHT22;8123;50.906;6.172;2024-03-06T10:24:24;9.40;9.10
16038;DHT22;8123;50.906;6.172;2024-03-06T10:26:55;9.50;99.90
16038;DHT22;8123;50.906;6.172;2024-03-06T10:29:24;9.60;99.90
16038;DHT22;8123;50.906;6.172;2024-03-06T10:31:57;9.70;99.90
16038;DHT22;8123;50.906;6.172;2024-03-06T10:34:25;9.80;1.00
16038;DHT22;8123;50.906;6.172;2024-03-06T10:39:20;10.10;1.00
16038;DHT22;8123;50.906;6.172;2024-03-06T10:41:46;10.20;1.00
16038;DHT22;8123;50.906;6.172;2024-03-06T10:44:18;10.30;99.90
16038;DHT22;8123;50.906;6.172;2024-03-06T10:46:46;10.50;55.30
16038;DHT22;8123;50.906;6.172;2024-03-06T10:49:13;10.60;99.90
16038;DHT22;8123;50.906;6.172;2024-03-06T10:51:44;10.50;99.90
16038;DHT22;8123;50.906;6.172;2024-03-06T10:54:13;10.60;1.00
16038;DHT22;8123;50.906;6.172;2024-03-06T10:56:40;10.60;1.00
16038;DHT22;8123;50.906;6.172;2024-03-06T10:59:12;10.70;1.00
16038;DHT22;8123;50.906;6.172;2024-03-06T11:01:39;10.80;1.00
16038;DHT22;8123;50.906;6.172;2024-03-06T11:04:06;10.90;1.00
16038;DHT22;8123;50.906;6.172;2024-03-06T11:06:33;11.30;1.00
16038;DHT22;8123;50.906;6.172;2024-03-06T11:09:00;11.10;1.00
16038;DHT22;8123;50.906;6.172;2024-03-06T11:11:27;10.90;99.90
16038;DHT22;8123;50.906;6.172;2024-03-06T11:14:00;11.00;99.90
16038;DHT22;8123;50.906;6.172;2024-03-06T11:16:27;11.00;99.90
16038;DHT22;8123;50.906;6.172;2024-03-06T11:19:07;11.30;99.90
16038;DHT22;8123;50.906;6.172;2024-03-06T11:21:33;11.40;99.90
16038;DHT22;8123;50.906;6.172;2024-03-06T11:24:11;11.30;1.00
16038;DHT22;8123;50.906;6.172;2024-03-06T11:26:37;11.40;99.90
16038;DHT22;8123;50.906;6.172;2024-03-06T11:29:08;11.50;99.90
16038;DHT22;8123;50.906;6.172;2024-03-06T11:31:34;11.40;99.90
16038;DHT22;8123;50.906;6.172;2024-03-06T11:34:04;11.40;99.90
16038;DHT22;8123;50.906;6.172;2024-03-06T11:36:30;11.10;1.00
16038;DHT22;8123;50.906;6.172;2024-03-06T11:39:03;11.10;95.50
16038;DHT22;8123;50.906;6.172;2024-03-06T11:41:31;11.00;99.90
16038;DHT22;8123;50.906;6.172;2024-03-06T11:43:59;11.10;99.90
16038;DHT22;8123;50.906;6.172;2024-03-06T11:46:45;11.10;30.00
16038;DHT22;8123;50.906;6.172;2024-03-06T11:49:22;11.10;99.90
16038;DHT22;8123;50.906;6.172;2024-03-06T11:52:00;11.10;99.90
16038;DHT22;8123;50.906;6.172;2024-03-06T11:54:26;11.10;27.30
16038;DHT22;8123;50.906;6.172;2024-03-06T11:56:54;10.90;43.70
16038;DHT22;8123;50.906;6.172;2024-03-06T11:59:27;11.10;99.90
16038;DHT22;8123;50.906;6.172;2024-03-06T12:01:57;10.80;26.50
16038;DHT22;8123;50.906;6.172;2024-03-06T12:04:24;10.80;75.30
16038;DHT22;8123;50.906;6.172;2024-03-06T12:06:50;11.00;1.00
16038;DHT22;8123;50.906;6.172;2024-03-06T12:09:16;11.00;99.90
16038;DHT22;8123;50.906;6.172;2024-03-06T12:11:42;11.10;1.00
16038;DHT22;8123;50.906;6.172;2024-03-06T12:14:16;11.10;1.00
16038;DHT22;8123;50.906;6.172;2024-03-06T12:16:55;11.10;1.00
16038;DHT22;8123;50.906;6.172;2024-03-06T12:19:27;11.20;1.00
16038;DHT22;8123;50.906;6.172;2024-03-06T12:21:53;11.20;1.00
16038;DHT22;8123;50.906;6.172;2024-03-06T12:24:20;11.30;1.00
16038;DHT22;8123;50.906;6.172;2024-03-06T12:26:46;11.50;1.00
16038;DHT22;8123;50.906;6.172;2024-03-06T12:29:18;11.50;1.00
16038;DHT22;8123;50.906;6.172;2024-03-06T12:31:44;11.60;1.00
16038;DHT22;8123;50.906;6.172;2024-03-06T12:34:13;11.50;1.00
16038;DHT22;8123;50.906;6.172;2024-03-06T12:36:42;11.40;1.00
16038;DHT22;8123;50.906;6.172;2024-03-06T12:39:08;11.40;1.00
16038;DHT22;8123;50.906;6.172;2024-03-06T12:41:40;11.40;1.00
16038;DHT22;8123;50.906;6.172;2024-03-06T12:44:06;11.50;1.00
16038;DHT22;8123;50.906;6.172;2024-03-06T12:46:34;11.20;6.10
16038;DHT22;8123;50.906;6.172;2024-03-06T12:49:00;11.30;1.00
16038;DHT22;8123;50.906;6.172;2024-03-06T12:51:25;11.40;1.00
16038;DHT22;8123;50.906;6.172;2024-03-06T12:53:51;11.20;1.00
16038;DHT22;8123;50.906;6.172;2024-03-06T12:56:18;11.10;1.00
16038;DHT22;8123;50.906;6.172;2024-03-06T12:58:44;11.20;1.00
16038;DHT22;8123;50.906;6.172;2024-03-06T13:01:10;11.20;1.00
16038;DHT22;8123;50.906;6.172;2024-03-06T13:03:38;11.40;1.00
16038;DHT22;8123;50.906;6.172;2024-03-06T13:06:04;11.00;1.00
16038;DHT22;8123;50.906;6.172;2024-03-06T13:08:31;11.10;1.00
16038;DHT22;8123;50.906;6.172;2024-03-06T13:10:57;11.10;1.00
16038;DHT22;8123;50.906;6.172;2024-03-06T13:13:23;11.30;1.00
16038;DHT22;8123;50.906;6.172;2024-03-06T13:15:54;11.20;1.00
16038;DHT22;8123;50.906;6.172;2024-03-06T13:18:19;11.30;1.00
16038;DHT22;8123;50.906;6.172;2024-03-06T13:20:45;11.20;1.00
16038;DHT22;8123;50.906;6.172;2024-03-06T13:23:11;11.40;1.00
16038;DHT22;8123;50.906;6.172;2024-03-06T13:25:37;11.40;1.00
16038;DHT22;8123;50.906;6.172;2024-03-06T13:28:03;11.40;1.00
16038;DHT22;8123;50.906;6.172;2024-03-06T13:30:29;11.40;1.00
16038;DHT22;8123;50.906;6.172;2024-03-06T13:32:54;11.30;1.00
16038;DHT22;8123;50.906;6.172;2024-03-06T13:35:20;11.30;1.00
16038;DHT22;8123;50.906;6.172;2024-03-06T13:37:47;11.20;1.00
16038;DHT22;8123;50.906;6.172;2024-03-06T13:40:13;11.20;1.00
16038;DHT22;8123;50.906;6.172;2024-03-06T13:42:42;11.20;99.90
16038;DHT22;8123;50.906;6.172;2024-03-06T13:45:08;11.20;99.90
16038;DHT22;8123;50.906;6.172;2024-03-06T13:47:41;11.20;99.90
16038;DHT22;8123;50.906;6.172;2024-03-06T13:50:08;11.20;99.90
16038;DHT22;8123;50.906;6.172;2024-03-06T13:52:34;11.30;99.90
16038;DHT22;8123;50.906;6.172;2024-03-06T13:55:00;11.40;1.00
16038;DHT22;8123;50.906;6.172;2024-03-06T13:57:31;11.30;1.00
16038;DHT22;8123;50.906;6.172;2024-03-06T14:00:00;11.30;1.00
16038;DHT22;8123;50.906;6.172;2024-03-06T14:02:25;11.40;1.00
16038;DHT22;8123;50.906;6.172;2024-03-06T14:04:51;11.30;1.00
16038;DHT22;8123;50.906;6.172;2024-03-06T14:07:17;11.40;1.00
16038;DHT22;8123;50.906;6.172;2024-03-06T14:09:42;11.40;1.00
16038;DHT22;8123;50.906;6.172;2024-03-06T14:12:08;11.50;1.00
16038;DHT22;8123;50.906;6.172;2024-03-06T14:14:34;11.50;99.90
16038;DHT22;8123;50.906;6.172;2024-03-06T14:16:59;11.50;99.90
16038;DHT22;8123;50.906;6.172;2024-03-06T14:19:25;11.50;1.00
16038;DHT22;8123;50.906;6.172;2024-03-06T14:21:50;11.40;1.00
16038;DHT22;8123;50.906;6.172;2024-03-06T14:24:17;11.30;1.00
16038;DHT22;8123;50.906;6.172;2024-03-06T14:26:42;11.20;1.00
16038;DHT22;8123;50.906;6.172;2024-03-06T14:29:10;11.10;1.00
16038;DHT22;8123;50.906;6.172;2024-03-06T14:31:36;11.30;99.90
16038;DHT22;8123;50.906;6.172;2024-03-06T14:34:02;11.40;99.90
16038;DHT22;8123;50.906;6.172;2024-03-06T14:36:27;11.10;1.00
16038;DHT22;8123;50.906;6.172;2024-03-06T14:38:53;11.20;1.00
16038;DHT22;8123;50.906;6.172;2024-03-06T14:41:19;11.20;99.90
16038;DHT22;8123;50.906;6.172;2024-03-06T14:43:46;11.10;99.90
16038;DHT22;8123;50.906;6.172;2024-03-06T14:46:11;11.10;1.00
16038;DHT22;8123;50.906;6.172;2024-03-06T14:48:38;11.10;1.00
16038;DHT22;8123;50.906;6.172;2024-03-06T14:51:04;11.20;1.00
16038;DHT22;8123;50.906;6.172;2024-03-06T14:53:29;11.20;99.90
16038;DHT22;8123;50.906;6.172;2024-03-06T14:55:56;11.20;99.90
16038;DHT22;8123;50.906;6.172;2024-03-06T14:58:21;11.20;1.00
16038;DHT22;8123;50.906;6.172;2024-03-06T15:00:48;11.30;1.00
16038;DHT22;8123;50.906;6.172;2024-03-06T15:03:14;11.20;1.00
16038;DHT22;8123;50.906;6.172;2024-03-06T15:05:40;11.20;1.00
16038;DHT22;8123;50.906;6.172;2024-03-06T15:08:06;11.10;1.00
16038;DHT22;8123;50.906;6.172;2024-03-06T15:10:31;11.10;1.00
16038;DHT22;8123;50.906;6.172;2024-03-06T15:13:00;11.00;1.00
16038;DHT22;8123;50.906;6.172;2024-03-06T15:15:26;11.20;1.00
16038;DHT22;8123;50.906;6.172;2024-03-06T15:17:51;11.20;1.00
16038;DHT22;8123;50.906;6.172;2024-03-06T15:20:17;10.90;99.90
16038;DHT22;8123;50.906;6.172;2024-03-06T15:22:45;10.90;1.00
16038;DHT22;8123;50.906;6.172;2024-03-06T15:25:12;11.00;1.00
16038;DHT22;8123;50.906;6.172;2024-03-06T15:27:39;11.10;1.00
16038;DHT22;8123;50.906;6.172;2024-03-06T15:30:05;10.80;1.00
16038;DHT22;8123;50.906;6.172;2024-03-06T15:32:31;10.80;1.00
16038;DHT22;8123;50.906;6.172;2024-03-06T15:34:57;10.70;1.00
16038;DHT22;8123;50.906;6.172;2024-03-06T15:37:23;10.70;1.00
16038;DHT22;8123;50.906;6.172;2024-03-06T15:39:55;10.80;1.00
16038;DHT22;8123;50.906;6.172;2024-03-06T15:42:22;10.50;1.00
16038;DHT22;8123;50.906;6.172;2024-03-06T15:44:48;10.50;1.00
16038;DHT22;8123;50.906;6.172;2024-03-06T15:47:16;10.50;1.00
16038;DHT22;8123;50.906;6.172;2024-03-06T15:49:43;10.40;1.00
16038;DHT22;8123;50.906;6.172;2024-03-06T15:52:10;10.40;1.00
16038;DHT22;8123;50.906;6.172;2024-03-06T15:54:36;10.60;1.00
16038;DHT22;8123;50.906;6.172;2024-03-06T15:57:06;10.50;1.00
16038;DHT22;8123;50.906;6.172;2024-03-06T15:59:35;10.20;1.00
16038;DHT22;8123;50.906;6.172;2024-03-06T16:02:01;10.30;1.00